sensor_id;sensor_type;location;lat;lon;timestamp;pressure;altitude;pressure_sealevel;temperature;humidity
50242;BME280;36126;43.222;27.874;2023-04-07T09:10:27;101298.63;;;13.94;60.55
50242;BME280;36126;43.222;27.874;2023-04-07T09:15:31;101313.25;;;14.25;60.09
50242;BME280;36126;43.222;27.874;2023-04-07T09:20:56;101318.22;;;14.35;59.44
50242;BME280;36126;43.222;27.874;2023-04-07T09:23:26;101314.00;;;14.73;60.80
50242;BME280;36126;43.222;27.874;2023-04-07T09:25:53;101312.28;;;15.29;58.87
50242;BME280;36126;43.222;27.874;2023-04-07T09:28:19;101308.94;;;15.16;58.42
50242;BME280;36126;43.222;27.874;2023-04-07T09:30:54;101316.25;;;15.34;59.30
50242;BME280;36126;43.222;27.874;2023-04-07T09:33:26;101310.19;;;15.54;57.48
50242;BME280;36126;43.222;27.874;2023-04-07T09:35:55;101306.69;;;16.20;57.37
50242;BME280;36126;43.222;27.874;2023-04-07T09:38:21;101311.69;;;15.27;58.29
50242;BME280;36126;43.222;27.874;2023-04-07T09:40:49;101311.25;;;14.90;58.20
50242;BME280;36126;43.222;27.874;2023-04-07T09:43:15;101306.75;;;15.52;57.93
50242;BME280;36126;43.222;27.874;2023-04-07T09:45:41;101314.81;;;15.99;57.14
50242;BME280;36126;43.222;27.874;2023-04-07T09:48:19;101302.41;;;15.95;56.92
50242;BME280;36126;43.222;27.874;2023-04-07T09:50:46;101316.34;;;15.39;57.55
50242;BME280;36126;43.222;27.874;2023-04-07T09:53:16;101315.31;;;15.11;58.99
50242;BME280;36126;43.222;27.874;2023-04-07T09:55:43;101312.59;;;14.87;59.25
50242;BME280;36126;43.222;27.874;2023-04-07T09:58:11;101320.56;;;14.78;60.63
50242;BME280;36126;43.222;27.874;2023-04-07T10:00:37;101313.31;;;15.91;59.06
50242;BME280;36126;43.222;27.874;2023-04-07T10:03:04;101323.94;;;16.28;57.62
50242;BME280;36126;43.222;27.874;2023-04-07T10:05:30;101317.94;;;15.69;58.78
50242;BME280;36126;43.222;27.874;2023-04-07T10:07:55;101321.28;;;15.32;59.24
50242;BME280;36126;43.222;27.874;2023-04-07T10:10:21;101327.50;;;15.85;59.22
50242;BME280;36126;43.222;27.874;2023-04-07T10:12:46;101319.75;;;15.75;60.31
50242;BME280;36126;43.222;27.874;2023-04-07T10:15:14;101326.16;;;14.78;60.57
50242;BME280;36126;43.222;27.874;2023-04-07T10:17:41;101323.03;;;14.75;61.49
50242;BME280;36126;43.222;27.874;2023-04-07T10:20:10;101325.69;;;15.78;59.96
50242;BME280;36126;43.222;27.874;2023-04-07T10:22:36;101319.44;;;15.88;59.01
50242;BME280;36126;43.222;27.874;2023-04-07T10:25:06;101325.69;;;15.44;59.12
50242;BME280;36126;43.222;27.874;2023-04-07T10:27:35;101322.47;;;15.70;59.68
50242;BME280;36126;43.222;27.874;2023-04-07T10:30:03;101323.19;;;16.16;59.05
50242;BME280;36126;43.222;27.874;2023-04-07T10:32:31;101324.25;;;16.32;59.47
50242;BME280;36126;43.222;27.874;2023-04-07T10:34:57;101315.03;;;16.81;57.55
50242;BME280;36126;43.222;27.874;2023-04-07T10:37:23;101325.16;;;16.38;57.49
50242;BME280;36126;43.222;27.874;2023-04-07T10:40:26;101325.44;;;15.29;58.61
50242;BME280;36126;43.222;27.874;2023-04-07T10:45:03;101320.84;;;15.74;59.05
50242;BME280;36126;43.222;27.874;2023-04-07T10:47:29;101322.13;;;16.39;57.78
50242;BME280;36126;43.222;27.874;2023-04-07T10:50:37;101324.25;;;16.32;57.53
50242;BME280;36126;43.222;27.874;2023-04-07T10:52:47;101323.84;;;16.67;57.43
50242;BME280;36126;43.222;27.874;2023-04-07T11:00:38;101321.97;;;16.51;56.73
50242;BME280;36126;43.222;27.874;2023-04-07T11:03:12;101328.31;;;16.02;57.55
50242;BME280;36126;43.222;27.874;2023-04-07T11:05:41;101326.44;;;15.91;58.18
50242;BME280;36126;43.222;27.874;2023-04-07T11:08:07;101320.16;;;16.40;58.12
50242;BME280;36126;43.222;27.874;2023-04-07T11:10:33;101312.75;;;16.56;57.57
50242;BME280;36126;43.222;27.874;2023-04-07T11:13:05;101320.38;;;17.32;56.26
50242;BME280;36126;43.222;27.874;2023-04-07T11:15:31;101311.34;;;17.03;56.40
50242;BME280;36126;43.222;27.874;2023-04-07T11:20:43;101320.13;;;18.04;54.98
50242;BME280;36126;43.222;27.874;2023-04-07T11:23:09;101322.44;;;17.79;55.37
50242;BME280;36126;43.222;27.874;2023-04-07T11:25:35;101327.38;;;17.02;55.64
50242;BME280;36126;43.222;27.874;2023-04-07T11:28:02;101332.56;;;17.80;55.45
50242;BME280;36126;43.222;27.874;2023-04-07T11:30:28;101327.50;;;17.82;54.63
50242;BME280;36126;43.222;27.874;2023-04-07T11:32:53;101325.22;;;18.12;55.28
50242;BME280;36126;43.222;27.874;2023-04-07T11:35:18;101328.22;;;18.53;53.27
50242;BME280;36126;43.222;27.874;2023-04-07T11:37:44;101326.88;;;18.71;53.49
50242;BME280;36126;43.222;27.874;2023-04-07T11:40:10;101314.69;;;19.39;52.62
50242;BME280;36126;43.222;27.874;2023-04-07T11:42:36;101321.44;;;18.44;53.16
50242;BME280;36126;43.222;27.874;2023-04-07T11:45:02;101325.50;;;17.40;53.90
50242;BME280;36126;43.222;27.874;2023-04-07T11:50:00;101323.78;;;16.62;56.28
50242;BME280;36126;43.222;27.874;2023-04-07T11:52:25;101312.25;;;16.59;57.54
50242;BME280;36126;43.222;27.874;2023-04-07T11:54:50;101320.56;;;16.09;57.90
50242;BME280;36126;43.222;27.874;2023-04-07T11:57:27;101309.69;;;16.79;57.76
50242;BME280;36126;43.222;27.874;2023-04-07T12:00:08;101317.97;;;17.51;55.54
50242;BME280;36126;43.222;27.874;2023-04-07T12:02:34;101320.88;;;17.94;54.48
50242;BME280;36126;43.222;27.874;2023-04-07T12:05:01;101310.00;;;16.83;55.78
50242;BME280;36126;43.222;27.874;2023-04-07T12:07:26;101325.41;;;16.58;56.59
50242;BME280;36126;43.222;27.874;2023-04-07T12:09:54;101321.06;;;15.04;59.23
50242;BME280;36126;43.222;27.874;2023-04-07T12:12:28;101314.31;;;14.88;61.22
50242;BME280;36126;43.222;27.874;2023-04-07T12:14:54;101318.16;;;14.70;62.40
50242;BME280;36126;43.222;27.874;2023-04-07T12:17:24;101305.88;;;14.59;62.76
50242;BME280;36126;43.222;27.874;2023-04-07T12:19:50;101302.34;;;14.23;63.35
50242;BME280;36126;43.222;27.874;2023-04-07T12:22:16;101294.59;;;14.14;64.03
50242;BME280;36126;43.222;27.874;2023-04-07T12:24:42;101293.81;;;14.30;64.74
50242;BME280;36126;43.222;27.874;2023-04-07T12:27:07;101300.47;;;14.82;65.09
50242;BME280;36126;43.222;27.874;2023-04-07T12:29:33;101304.66;;;14.79;64.56
50242;BME280;36126;43.222;27.874;2023-04-07T12:32:00;101290.94;;;14.54;64.12
50242;BME280;36126;43.222;27.874;2023-04-07T12:34:26;101302.97;;;14.66;64.05
50242;BME280;36126;43.222;27.874;2023-04-07T12:36:52;101293.56;;;14.43;65.05
50242;BME280;36126;43.222;27.874;2023-04-07T12:39:17;101299.44;;;14.59;64.77
50242;BME280;36126;43.222;27.874;2023-04-07T12:41:43;101298.94;;;15.20;64.06
50242;BME280;36126;43.222;27.874;2023-04-07T12:44:10;101299.22;;;15.35;62.58
50242;BME280;36126;43.222;27.874;2023-04-07T12:46:36;101296.88;;;16.00;62.15
50242;BME280;36126;43.222;27.874;2023-04-07T12:49:01;101295.53;;;16.69;64.05
50242;BME280;36126;43.222;27.874;2023-04-07T12:51:27;101299.06;;;16.59;59.93
50242;BME280;36126;43.222;27.874;2023-04-07T12:53:53;101301.59;;;16.17;60.11
50242;BME280;36126;43.222;27.874;2023-04-07T12:56:18;101312.03;;;15.48;62.69
50242;BME280;36126;43.222;27.874;2023-04-07T12:58:44;101312.72;;;14.52;65.11
50242;BME280;36126;43.222;27.874;2023-04-07T13:01:10;101313.75;;;14.22;67.79
50242;BME280;36126;43.222;27.874;2023-04-07T13:03:35;101322.72;;;14.36;66.06
50242;BME280;36126;43.222;27.874;2023-04-07T13:06:01;101319.91;;;14.48;64.73
50242;BME280;36126;43.222;27.874;2023-04-07T13:08:27;101320.56;;;14.26;64.00
50242;BME280;36126;43.222;27.874;2023-04-07T13:10:53;101318.97;;;14.18;64.69
50242;BME280;36126;43.222;27.874;2023-04-07T13:13:18;101331.88;;;14.31;65.20
50242;BME280;36126;43.222;27.874;2023-04-07T13:15:44;101337.59;;;14.24;65.64
50242;BME280;36126;43.222;27.874;2023-04-07T13:18:09;101330.88;;;14.37;65.11
50242;BME280;36126;43.222;27.874;2023-04-07T13:20:35;101323.06;;;14.63;65.50
50242;BME280;36126;43.222;27.874;2023-04-07T13:23:01;101330.00;;;14.49;65.72
50242;BME280;36126;43.222;27.874;2023-04-07T13:25:27;101329.75;;;14.91;68.18
50242;BME280;36126;43.222;27.874;2023-04-07T13:27:52;101325.69;;;15.61;69.45
50242;BME280;36126;43.222;27.874;2023-04-07T13:30:18;101332.31;;;15.72;71.79
50242;BME280;36126;43.222;27.874;2023-04-07T13:32:43;101323.38;;;15.24;83.41
50242;BME280;36126;43.222;27.874;2023-04-07T13:35:09;101334.97;;;14.58;96.57
50242;BME280;36126;43.222;27.874;2023-04-07T13:37:34;101334.81;;;13.65;100.00
50242;BME280;36126;43.222;27.874;2023-04-07T13:40:00;101330.28;;;13.10;100.00
50242;BME280;36126;43.222;27.874;2023-04-07T13:42:26;101337.94;;;13.45;100.00
50242;BME280;36126;43.222;27.874;2023-04-07T13:44:51;101339.44;;;13.29;100.00
50242;BME280;36126;43.222;27.874;2023-04-07T13:47:18;101333.97;;;13.22;100.00
50242;BME280;36126;43.222;27.874;2023-04-07T13:49:45;101335.59;;;13.00;100.00
50242;BME280;36126;43.222;27.874;2023-04-07T13:52:10;101339.81;;;12.90;100.00
50242;BME280;36126;43.222;27.874;2023-04-07T13:54:37;101334.03;;;13.04;100.00
50242;BME280;36126;43.222;27.874;2023-04-07T13:57:03;101343.22;;;13.35;100.00
50242;BME280;36126;43.222;27.874;2023-04-07T13:59:29;101346.22;;;13.21;100.00
50242;BME280;36126;43.222;27.874;2023-04-07T14:01:55;101345.66;;;12.70;100.00
50242;BME280;36126;43.222;27.874;2023-04-07T14:04:20;101348.03;;;12.36;100.00
50242;BME280;36126;43.222;27.874;2023-04-07T14:06:46;101350.34;;;12.21;100.00
50242;BME280;36126;43.222;27.874;2023-04-07T14:09:12;101341.19;;;11.95;100.00
50242;BME280;36126;43.222;27.874;2023-04-07T14:11:37;101347.06;;;12.05;100.00
50242;BME280;36126;43.222;27.874;2023-04-07T14:14:03;101346.22;;;12.05;100.00
50242;BME280;36126;43.222;27.874;2023-04-07T14:16:28;101350.72;;;11.81;100.00
50242;BME280;36126;43.222;27.874;2023-04-07T14:18:54;101350.44;;;11.64;100.00
50242;BME280;36126;43.222;27.874;2023-04-07T14:21:20;101361.00;;;11.55;100.00
50242;BME280;36126;43.222;27.874;2023-04-07T14:23:45;101359.97;;;11.74;100.00
50242;BME280;36126;43.222;27.874;2023-04-07T14:26:11;101364.19;;;11.84;100.00
50242;BME280;36126;43.222;27.874;2023-04-07T14:28:37;101362.88;;;11.61;100.00
50242;BME280;36126;43.222;27.874;2023-04-07T14:31:02;101366.91;;;11.40;100.00
50242;BME280;36126;43.222;27.874;2023-04-07T14:33:28;101376.25;;;11.46;100.00
50242;BME280;36126;43.222;27.874;2023-04-07T14:35:53;101382.19;;;11.24;100.00
50242;BME280;36126;43.222;27.874;2023-04-07T14:38:19;101379.97;;;11.39;100.00
50242;BME280;36126;43.222;27.874;2023-04-07T14:40:48;101380.88;;;11.84;100.00
50242;BME280;36126;43.222;27.874;2023-04-07T14:43:14;101382.09;;;11.95;100.00
50242;BME280;36126;43.222;27.874;2023-04-07T14:45:39;101377.56;;;12.19;100.00
50242;BME280;36126;43.222;27.874;2023-04-07T14:48:07;101378.63;;;11.99;100.00
50242;BME280;36126;43.222;27.874;2023-04-07T14:50:32;101384.34;;;11.79;100.00
50242;BME280;36126;43.222;27.874;2023-04-07T14:52:58;101387.00;;;11.42;100.00
50242;BME280;36126;43.222;27.874;2023-04-07T14:55:24;101381.59;;;11.47;100.00
50242;BME280;36126;43.222;27.874;2023-04-07T14:57:49;101384.84;;;11.44;100.00
50242;BME280;36126;43.222;27.874;2023-04-07T15:00:15;101396.28;;;11.29;100.00
50242;BME280;36126;43.222;27.874;2023-04-07T15:02:40;101405.50;;;11.30;100.00
50242;BME280;36126;43.222;27.874;2023-04-07T15:05:06;101406.31;;;11.37;100.00
50242;BME280;36126;43.222;27.874;2023-04-07T15:07:32;101408.56;;;11.21;100.00
50242;BME280;36126;43.222;27.874;2023-04-07T15:09:58;101405.13;;;11.19;100.00
50242;BME280;36126;43.222;27.874;2023-04-07T15:12:24;101412.16;;;11.22;100.00
50242;BME280;36126;43.222;27.874;2023-04-07T15:17:42;101414.13;;;11.21;100.00
50242;BME280;36126;43.222;27.874;2023-04-07T15:20:08;101416.91;;;11.21;100.00
50242;BME280;36126;43.222;27.874;2023-04-07T15:22:34;101407.88;;;10.81;100.00
50242;BME280;36126;43.222;27.874;2023-04-07T15:25:00;101413.72;;;10.66;100.00
50242;BME280;36126;43.222;27.874;2023-04-07T15:27:25;101411.41;;;10.56;100.00
50242;BME280;36126;43.222;27.874;2023-04-07T15:29:51;101409.06;;;10.53;100.00
50242;BME280;36126;43.222;27.874;2023-04-07T15:32:17;101419.13;;;10.47;100.00
50242;BME280;36126;43.222;27.874;2023-04-07T15:34:42;101426.41;;;10.21;100.00
50242;BME280;36126;43.222;27.874;2023-04-07T15:37:07;101420.22;;;10.26;100.00
50242;BME280;36126;43.222;27.874;2023-04-07T15:39:33;101423.44;;;10.36;100.00
50242;BME280;36126;43.222;27.874;2023-04-07T15:41:59;101427.47;;;10.41;100.00
50242;BME280;36126;43.222;27.874;2023-04-07T15:44:24;101424.28;;;10.24;100.00
50242;BME280;36126;43.222;27.874;2023-04-07T15:46:50;101424.47;;;10.29;100.00
50242;BME280;36126;43.222;27.874;2023-04-07T15:49:15;101431.56;;;10.18;100.00
50242;BME280;36126;43.222;27.874;2023-04-07T15:51:46;101438.63;;;10.14;100.00
50242;BME280;36126;43.222;27.874;2023-04-07T15:54:11;101437.97;;;10.18;100.00
50242;BME280;36126;43.222;27.874;2023-04-07T15:56:37;101443.06;;;10.21;100.00
50242;BME280;36126;43.222;27.874;2023-04-07T15:59:03;101439.47;;;10.34;100.00
50242;BME280;36126;43.222;27.874;2023-04-07T16:01:28;101443.94;;;10.15;100.00
50242;BME280;36126;43.222;27.874;2023-04-07T16:03:54;101438.19;;;10.17;100.00
50242;BME280;36126;43.222;27.874;2023-04-07T16:08:55;101453.13;;;10.16;100.00
50242;BME280;36126;43.222;27.874;2023-04-07T16:11:20;101449.06;;;10.18;100.00
50242;BME280;36126;43.222;27.874;2023-04-07T16:13:46;101455.69;;;10.24;100.00
50242;BME280;36126;43.222;27.874;2023-04-07T16:16:12;101456.97;;;10.21;100.00
50242;BME280;36126;43.222;27.874;2023-04-07T16:18:37;101460.19;;;10.25;100.00
50242;BME280;36126;43.222;27.874;2023-04-07T16:21:05;101457.41;;;10.32;100.00
50242;BME280;36126;43.222;27.874;2023-04-07T16:23:34;101457.63;;;10.17;100.00
50242;BME280;36126;43.222;27.874;2023-04-07T16:37:18;101483.06;;;10.20;100.00
50242;BME280;36126;43.222;27.874;2023-04-07T16:39:43;101486.00;;;10.32;100.00
50242;BME280;36126;43.222;27.874;2023-04-07T16:50:23;101499.50;;;9.82;100.00
50242;BME280;36126;43.222;27.874;2023-04-07T16:58:12;101508.66;;;9.82;100.00
50242;BME280;36126;43.222;27.874;2023-04-07T17:00:37;101512.72;;;9.93;100.00
50242;BME280;36126;43.222;27.874;2023-04-07T17:03:03;101519.97;;;9.81;100.00
50242;BME280;36126;43.222;27.874;2023-04-07T17:05:29;101520.19;;;9.73;100.00
50242;BME280;36126;43.222;27.874;2023-04-07T17:07:54;101526.31;;;9.55;100.00
50242;BME280;36126;43.222;27.874;2023-04-07T17:10:20;101523.94;;;9.45;100.00
50242;BME280;36126;43.222;27.874;2023-04-07T17:12:45;101526.25;;;9.34;100.00
50242;BME280;36126;43.222;27.874;2023-04-07T17:15:16;101531.97;;;9.26;100.00
50242;BME280;36126;43.222;27.874;2023-04-07T17:17:41;101533.94;;;9.32;100.00
50242;BME280;36126;43.222;27.874;2023-04-07T17:20:07;101539.28;;;9.34;100.00
50242;BME280;36126;43.222;27.874;2023-04-07T17:22:33;101537.84;;;9.51;100.00
50242;BME280;36126;43.222;27.874;2023-04-07T17:24:58;101541.41;;;9.39;100.00
50242;BME280;36126;43.222;27.874;2023-04-07T17:27:24;101546.91;;;9.25;100.00
50242;BME280;36126;43.222;27.874;2023-04-07T17:29:50;101549.28;;;9.28;100.00
50242;BME280;36126;43.222;27.874;2023-04-07T17:32:16;101552.69;;;9.30;100.00
50242;BME280;36126;43.222;27.874;2023-04-07T17:34:41;101561.72;;;9.39;100.00
50242;BME280;36126;43.222;27.874;2023-04-07T17:37:07;101562.50;;;9.33;100.00
50242;BME280;36126;43.222;27.874;2023-04-07T17:39:32;101565.09;;;9.34;100.00
50242;BME280;36126;43.222;27.874;2023-04-07T17:41:58;101569.13;;;9.32;100.00
50242;BME280;36126;43.222;27.874;2023-04-07T17:44:23;101567.56;;;9.16;100.00
50242;BME280;36126;43.222;27.874;2023-04-07T17:46:49;101570.97;;;9.18;100.00
50242;BME280;36126;43.222;27.874;2023-04-07T17:49:15;101569.41;;;9.02;100.00
50242;BME280;36126;43.222;27.874;2023-04-07T17:51:41;101573.91;;;9.10;100.00
50242;BME280;36126;43.222;27.874;2023-04-07T17:54:06;101576.66;;;9.03;100.00
50242;BME280;36126;43.222;27.874;2023-04-07T17:56:32;101577.72;;;9.02;100.00
50242;BME280;36126;43.222;27.874;2023-04-07T17:59:00;101591.28;;;8.90;100.00
50242;BME280;36126;43.222;27.874;2023-04-07T18:01:26;101588.63;;;8.75;100.00
50242;BME280;36126;43.222;27.874;2023-04-07T18:03:52;101591.63;;;8.74;100.00
50242;BME280;36126;43.222;27.874;2023-04-07T18:06:17;101603.22;;;8.84;100.00
50242;BME280;36126;43.222;27.874;2023-04-07T18:08:46;101600.22;;;8.85;100.00
50242;BME280;36126;43.222;27.874;2023-04-07T18:11:12;101604.25;;;8.83;100.00
50242;BME280;36126;43.222;27.874;2023-04-07T18:13:38;101607.13;;;8.68;100.00
50242;BME280;36126;43.222;27.874;2023-04-07T18:16:03;101612.47;;;8.70;100.00
50242;BME280;36126;43.222;27.874;2023-04-07T18:18:33;101612.75;;;8.53;100.00
50242;BME280;36126;43.222;27.874;2023-04-07T18:20:58;101617.94;;;8.56;100.00
50242;BME280;36126;43.222;27.874;2023-04-07T18:23:24;101628.41;;;8.61;100.00
50242;BME280;36126;43.222;27.874;2023-04-07T18:25:50;101627.00;;;8.72;100.00
50242;BME280;36126;43.222;27.874;2023-04-07T18:28:15;101635.25;;;8.65;100.00
50242;BME280;36126;43.222;27.874;2023-04-07T18:30:41;101634.00;;;8.67;100.00
50242;BME280;36126;43.222;27.874;2023-04-07T18:33:07;101638.88;;;8.65;100.00
50242;BME280;36126;43.222;27.874;2023-04-07T18:35:32;101634.38;;;8.64;100.00
50242;BME280;36126;43.222;27.874;2023-04-07T18:37:58;101636.50;;;8.62;100.00
50242;BME280;36126;43.222;27.874;2023-04-07T18:40:24;101630.25;;;8.54;100.00
50242;BME280;36126;43.222;27.874;2023-04-07T18:42:50;101633.69;;;8.56;100.00
50242;BME280;36126;43.222;27.874;2023-04-07T18:45:15;101629.31;;;8.46;100.00
50242;BME280;36126;43.222;27.874;2023-04-07T18:47:41;101631.41;;;8.44;100.00
50242;BME280;36126;43.222;27.874;2023-04-07T18:50:06;101632.47;;;8.43;100.00
50242;BME280;36126;43.222;27.874;2023-04-07T18:52:32;101635.06;;;8.45;100.00
50242;BME280;36126;43.222;27.874;2023-04-07T18:54:57;101633.66;;;8.34;100.00
50242;BME280;36126;43.222;27.874;2023-04-07T18:57:23;101626.22;;;8.34;100.00
50242;BME280;36126;43.222;27.874;2023-04-07T18:59:48;101639.19;;;8.34;100.00
50242;BME280;36126;43.222;27.874;2023-04-07T19:02:14;101640.00;;;8.28;100.00
50242;BME280;36126;43.222;27.874;2023-04-07T19:04:39;101645.75;;;8.26;100.00
50242;BME280;36126;43.222;27.874;2023-04-07T19:07:05;101641.13;;;8.33;100.00
50242;BME280;36126;43.222;27.874;2023-04-07T19:09:31;101642.06;;;8.19;100.00
50242;BME280;36126;43.222;27.874;2023-04-07T19:11:57;101646.84;;;8.32;100.00
50242;BME280;36126;43.222;27.874;2023-04-07T19:14:23;101643.69;;;8.35;100.00
50242;BME280;36126;43.222;27.874;2023-04-07T19:16:49;101649.91;;;8.37;100.00
50242;BME280;36126;43.222;27.874;2023-04-07T19:19:15;101646.31;;;8.43;100.00
50242;BME280;36126;43.222;27.874;2023-04-07T19:21:41;101641.38;;;8.39;100.00
50242;BME280;36126;43.222;27.874;2023-04-07T19:24:06;101649.81;;;8.30;100.00
50242;BME280;36126;43.222;27.874;2023-04-07T19:26:32;101648.78;;;8.31;100.00
50242;BME280;36126;43.222;27.874;2023-04-07T19:28:59;101653.09;;;8.41;100.00
50242;BME280;36126;43.222;27.874;2023-04-07T19:31:24;101655.16;;;8.32;100.00
50242;BME280;36126;43.222;27.874;2023-04-07T19:33:50;101658.00;;;8.17;100.00
50242;BME280;36126;43.222;27.874;2023-04-07T19:36:15;101662.38;;;7.90;100.00
50242;BME280;36126;43.222;27.874;2023-04-07T19:38:41;101654.72;;;7.55;100.00
50242;BME280;36126;43.222;27.874;2023-04-07T19:41:06;101658.25;;;7.64;100.00
50242;BME280;36126;43.222;27.874;2023-04-07T19:43:32;101659.34;;;7.85;100.00
50242;BME280;36126;43.222;27.874;2023-04-07T19:45:58;101656.50;;;7.99;100.00
50242;BME280;36126;43.222;27.874;2023-04-07T19:48:24;101658.03;;;8.02;100.00
50242;BME280;36126;43.222;27.874;2023-04-07T19:50:50;101659.16;;;8.08;100.00
50242;BME280;36126;43.222;27.874;2023-04-07T19:53:16;101660.03;;;8.08;100.00
50242;BME280;36126;43.222;27.874;2023-04-07T19:55:42;101667.34;;;8.16;100.00
50242;BME280;36126;43.222;27.874;2023-04-07T19:58:08;101663.94;;;8.14;100.00
50242;BME280;36126;43.222;27.874;2023-04-07T20:00:34;101661.47;;;8.04;100.00
50242;BME280;36126;43.222;27.874;2023-04-07T20:03:00;101662.22;;;8.13;100.00
50242;BME280;36126;43.222;27.874;2023-04-07T20:05:25;101662.22;;;8.13;100.00
50242;BME280;36126;43.222;27.874;2023-04-07T20:07:51;101656.50;;;7.99;100.00
50242;BME280;36126;43.222;27.874;2023-04-07T20:10:16;101663.44;;;8.10;100.00
50242;BME280;36126;43.222;27.874;2023-04-07T20:12:42;101665.44;;;8.16;100.00
50242;BME280;36126;43.222;27.874;2023-04-07T20:15:07;101660.97;;;8.15;100.00
50242;BME280;36126;43.222;27.874;2023-04-07T20:17:33;101661.69;;;8.03;100.00
50242;BME280;36126;43.222;27.874;2023-04-07T20:20:01;101666.81;;;8.06;100.00
50242;BME280;36126;43.222;27.874;2023-04-07T20:22:26;101669.88;;;8.11;100.00
50242;BME280;36126;43.222;27.874;2023-04-07T20:24:52;101669.78;;;8.26;100.00
50242;BME280;36126;43.222;27.874;2023-04-07T20:27:17;101669.75;;;8.19;100.00
50242;BME280;36126;43.222;27.874;2023-04-07T20:29:43;101673.00;;;7.86;100.00
50242;BME280;36126;43.222;27.874;2023-04-07T20:32:08;101667.59;;;7.63;100.00
50242;BME280;36126;43.222;27.874;2023-04-07T20:34:34;101662.13;;;8.06;100.00
50242;BME280;36126;43.222;27.874;2023-04-07T20:36:59;101668.25;;;8.02;100.00
50242;BME280;36126;43.222;27.874;2023-04-07T20:39:25;101672.09;;;8.22;100.00
50242;BME280;36126;43.222;27.874;2023-04-07T20:41:51;101665.97;;;8.05;100.00
50242;BME280;36126;43.222;27.874;2023-04-07T20:44:16;101663.00;;;8.07;100.00
50242;BME280;36126;43.222;27.874;2023-04-07T20:46:42;101666.44;;;8.30;100.00
50242;BME280;36126;43.222;27.874;2023-04-07T20:49:08;101661.94;;;8.29;100.00
50242;BME280;36126;43.222;27.874;2023-04-07T20:51:33;101665.31;;;8.25;100.00
50242;BME280;36126;43.222;27.874;2023-04-07T20:54:00;101668.53;;;8.28;100.00
50242;BME280;36126;43.222;27.874;2023-04-07T20:56:26;101658.00;;;8.39;100.00
50242;BME280;36126;43.222;27.874;2023-04-07T20:58:53;101664.38;;;8.39;100.00
50242;BME280;36126;43.222;27.874;2023-04-07T21:01:18;101673.03;;;8.29;100.00
50242;BME280;36126;43.222;27.874;2023-04-07T21:03:44;101664.31;;;8.32;100.00
50242;BME280;36126;43.222;27.874;2023-04-07T21:06:09;101672.63;;;8.32;100.00
50242;BME280;36126;43.222;27.874;2023-04-07T21:08:35;101664.91;;;8.28;100.00
50242;BME280;36126;43.222;27.874;2023-04-07T21:11:00;101672.88;;;8.16;100.00
50242;BME280;36126;43.222;27.874;2023-04-07T21:13:26;101667.16;;;8.17;100.00
50242;BME280;36126;43.222;27.874;2023-04-07T21:15:53;101665.16;;;8.11;100.00
50242;BME280;36126;43.222;27.874;2023-04-07T21:18:18;101670.50;;;7.91;100.00
50242;BME280;36126;43.222;27.874;2023-04-07T21:20:44;101673.00;;;7.86;100.00
50242;BME280;36126;43.222;27.874;2023-04-07T21:23:10;101671.03;;;8.02;100.00
50242;BME280;36126;43.222;27.874;2023-04-07T21:25:35;101669.47;;;8.14;100.00
50242;BME280;36126;43.222;27.874;2023-04-07T21:28:02;101680.25;;;8.09;100.00
50242;BME280;36126;43.222;27.874;2023-04-07T21:30:27;101674.19;;;7.98;100.00
50242;BME280;36126;43.222;27.874;2023-04-07T21:32:53;101674.63;;;7.80;100.00
50242;BME280;36126;43.222;27.874;2023-04-07T21:35:19;101677.22;;;7.67;100.00
50242;BME280;36126;43.222;27.874;2023-04-07T21:37:45;101682.75;;;7.67;100.00
50242;BME280;36126;43.222;27.874;2023-04-07T21:40:10;101688.19;;;7.45;100.00
50242;BME280;36126;43.222;27.874;2023-04-07T21:42:36;101692.88;;;7.45;100.00
50242;BME280;36126;43.222;27.874;2023-04-07T21:45:01;101695.06;;;7.35;100.00
50242;BME280;36126;43.222;27.874;2023-04-07T21:47:27;101696.13;;;7.34;100.00
50242;BME280;36126;43.222;27.874;2023-04-07T21:49:52;101692.50;;;7.18;100.00
50242;BME280;36126;43.222;27.874;2023-04-07T21:52:18;101696.41;;;7.09;100.00
50242;BME280;36126;43.222;27.874;2023-04-07T21:54:44;101700.78;;;7.03;100.00
50242;BME280;36126;43.222;27.874;2023-04-07T21:57:09;101704.09;;;6.84;100.00
50242;BME280;36126;43.222;27.874;2023-04-07T21:59:36;101708.50;;;6.70;100.00
50242;BME280;36126;43.222;27.874;2023-04-07T22:02:02;101703.22;;;6.60;100.00
50242;BME280;36126;43.222;27.874;2023-04-07T22:04:28;101709.81;;;6.59;100.00
50242;BME280;36126;43.222;27.874;2023-04-07T22:06:54;101708.25;;;6.79;100.00
50242;BME280;36126;43.222;27.874;2023-04-07T22:09:20;101712.28;;;6.92;100.00
50242;BME280;36126;43.222;27.874;2023-04-07T22:11:46;101711.03;;;6.94;100.00
50242;BME280;36126;43.222;27.874;2023-04-07T22:14:11;101701.59;;;6.89;100.00
50242;BME280;36126;43.222;27.874;2023-04-07T22:16:36;101704.34;;;6.89;100.00
50242;BME280;36126;43.222;27.874;2023-04-07T22:19:02;101709.09;;;6.80;100.00
50242;BME280;36126;43.222;27.874;2023-04-07T22:21:28;101702.38;;;6.36;100.00
50242;BME280;36126;43.222;27.874;2023-04-07T22:23:53;101708.72;;;6.45;100.00
50242;BME280;36126;43.222;27.874;2023-04-07T22:26:19;101702.94;;;6.55;100.00
50242;BME280;36126;43.222;27.874;2023-04-07T22:28:44;101700.16;;;6.93;100.00
50242;BME280;36126;43.222;27.874;2023-04-07T22:31:10;101695.13;;;6.96;100.00